sensor_id;sensor_type;location;lat;lon;timestamp;temperature;humidity
22562;DHT22;11447;50.562;8.504;2023-02-26T00:01:17;1.50;66.80
22562;DHT22;11447;50.562;8.504;2023-02-26T00:03:51;1.40;67.00
22562;DHT22;11447;50.562;8.504;2023-02-26T00:06:17;1.60;66.90
22562;DHT22;11447;50.562;8.504;2023-02-26T00:08:46;1.50;67.00
22562;DHT22;11447;50.562;8.504;2023-02-26T00:11:13;1.40;66.90
22562;DHT22;11447;50.562;8.504;2023-02-26T00:13:41;1.10;67.70
22562;DHT22;11447;50.562;8.504;2023-02-26T00:16:12;1.10;67.80
22562;DHT22;11447;50.562;8.504;2023-02-26T00:18:44;1.10;68.70
22562;DHT22;11447;50.562;8.504;2023-02-26T00:21:18;0.80;71.60
22562;DHT22;11447;50.562;8.504;2023-02-26T00:23:47;0.60;72.20
22562;DHT22;11447;50.562;8.504;2023-02-26T00:26:14;0.90;72.10
22562;DHT22;11447;50.562;8.504;2023-02-26T00:28:41;0.80;72.10
22562;DHT22;11447;50.562;8.504;2023-02-26T00:31:08;0.90;70.50
22562;DHT22;11447;50.562;8.504;2023-02-26T00:33:37;1.30;69.80
22562;DHT22;11447;50.562;8.504;2023-02-26T00:38:56;1.30;69.70
22562;DHT22;11447;50.562;8.504;2023-02-26T00:41:25;1.20;71.00
22562;DHT22;11447;50.562;8.504;2023-02-26T00:43:52;1.20;70.50
22562;DHT22;11447;50.562;8.504;2023-02-26T00:51:18;0.90;72.20
22562;DHT22;11447;50.562;8.504;2023-02-26T00:53:50;1.00;72.30
22562;DHT22;11447;50.562;8.504;2023-02-26T00:56:20;0.80;73.00
22562;DHT22;11447;50.562;8.504;2023-02-26T00:58:46;0.90;72.40
22562;DHT22;11447;50.562;8.504;2023-02-26T01:01:13;0.90;75.00
22562;DHT22;11447;50.562;8.504;2023-02-26T01:03:40;1.10;74.00
22562;DHT22;11447;50.562;8.504;2023-02-26T01:06:10;1.00;75.30
22562;DHT22;11447;50.562;8.504;2023-02-26T01:11:35;1.20;74.70
22562;DHT22;11447;50.562;8.504;2023-02-26T01:14:02;1.00;74.70
22562;DHT22;11447;50.562;8.504;2023-02-26T01:16:29;0.90;75.80
22562;DHT22;11447;50.562;8.504;2023-02-26T01:19:04;0.80;76.90
22562;DHT22;11447;50.562;8.504;2023-02-26T01:21:40;0.90;75.30
22562;DHT22;11447;50.562;8.504;2023-02-26T01:24:07;0.70;76.30
22562;DHT22;11447;50.562;8.504;2023-02-26T01:26:37;1.00;75.60
22562;DHT22;11447;50.562;8.504;2023-02-26T01:29:04;1.00;74.20
22562;DHT22;11447;50.562;8.504;2023-02-26T01:34:14;1.00;74.00
22562;DHT22;11447;50.562;8.504;2023-02-26T01:36:46;1.00;74.90
22562;DHT22;11447;50.562;8.504;2023-02-26T01:49:27;1.10;72.70
22562;DHT22;11447;50.562;8.504;2023-02-26T01:51:55;1.10;73.70
22562;DHT22;11447;50.562;8.504;2023-02-26T01:54:23;1.10;74.00
22562;DHT22;11447;50.562;8.504;2023-02-26T01:56:52;1.10;74.20
22562;DHT22;11447;50.562;8.504;2023-02-26T01:59:21;1.30;73.80
22562;DHT22;11447;50.562;8.504;2023-02-26T02:01:50;0.90;73.80
22562;DHT22;11447;50.562;8.504;2023-02-26T02:04:20;0.70;73.30
22562;DHT22;11447;50.562;8.504;2023-02-26T02:06:48;1.00;73.00
22562;DHT22;11447;50.562;8.504;2023-02-26T02:09:15;0.90;72.00
22562;DHT22;11447;50.562;8.504;2023-02-26T02:11:52;0.80;71.70
22562;DHT22;11447;50.562;8.504;2023-02-26T02:14:30;1.10;71.70
22562;DHT22;11447;50.562;8.504;2023-02-26T02:19:58;1.20;71.40
22562;DHT22;11447;50.562;8.504;2023-02-26T02:25:09;0.90;70.90
22562;DHT22;11447;50.562;8.504;2023-02-26T02:27:40;0.80;70.90
22562;DHT22;11447;50.562;8.504;2023-02-26T02:32:48;0.90;71.00
22562;DHT22;11447;50.562;8.504;2023-02-26T02:40:19;0.90;70.70
22562;DHT22;11447;50.562;8.504;2023-02-26T02:43:03;0.70;70.60
22562;DHT22;11447;50.562;8.504;2023-02-26T02:45:37;0.90;70.20
22562;DHT22;11447;50.562;8.504;2023-02-26T02:50:49;0.80;69.50
22562;DHT22;11447;50.562;8.504;2023-02-26T02:53:18;0.70;69.70
22562;DHT22;11447;50.562;8.504;2023-02-26T02:56:06;1.00;69.30
22562;DHT22;11447;50.562;8.504;2023-02-26T02:58:35;0.90;69.00
22562;DHT22;11447;50.562;8.504;2023-02-26T03:01:05;0.80;68.90
22562;DHT22;11447;50.562;8.504;2023-02-26T03:05:59;0.70;68.50
22562;DHT22;11447;50.562;8.504;2023-02-26T03:08:27;0.60;69.10
22562;DHT22;11447;50.562;8.504;2023-02-26T03:10:54;0.70;69.00
22562;DHT22;11447;50.562;8.504;2023-02-26T03:13:23;0.50;68.80
22562;DHT22;11447;50.562;8.504;2023-02-26T03:15:59;0.70;69.10
22562;DHT22;11447;50.562;8.504;2023-02-26T03:19:14;0.60;68.80
22562;DHT22;11447;50.562;8.504;2023-02-26T03:26:56;0.70;69.40
22562;DHT22;11447;50.562;8.504;2023-02-26T03:37:14;0.50;67.90
22562;DHT22;11447;50.562;8.504;2023-02-26T03:39:45;0.70;68.10
22562;DHT22;11447;50.562;8.504;2023-02-26T03:42:23;0.70;67.30
22562;DHT22;11447;50.562;8.504;2023-02-26T03:45:06;0.90;67.80
22562;DHT22;11447;50.562;8.504;2023-02-26T03:47:33;0.60;67.50
22562;DHT22;11447;50.562;8.504;2023-02-26T03:52:28;0.90;67.30
22562;DHT22;11447;50.562;8.504;2023-02-26T03:57:54;0.70;67.00
22562;DHT22;11447;50.562;8.504;2023-02-26T04:00:23;0.60;67.00
22562;DHT22;11447;50.562;8.504;2023-02-26T04:03:06;0.70;67.30
22562;DHT22;11447;50.562;8.504;2023-02-26T04:05:38;0.70;67.10
22562;DHT22;11447;50.562;8.504;2023-02-26T04:08:05;0.60;67.10
22562;DHT22;11447;50.562;8.504;2023-02-26T04:10:39;0.60;67.10
22562;DHT22;11447;50.562;8.504;2023-02-26T04:13:07;0.60;67.50
22562;DHT22;11447;50.562;8.504;2023-02-26T04:15:34;0.80;67.10
22562;DHT22;11447;50.562;8.504;2023-02-26T04:18:00;0.60;66.50
22562;DHT22;11447;50.562;8.504;2023-02-26T04:20:27;0.60;67.10
22562;DHT22;11447;50.562;8.504;2023-02-26T04:22:56;0.70;67.40
22562;DHT22;11447;50.562;8.504;2023-02-26T04:25:23;0.60;66.90
22562;DHT22;11447;50.562;8.504;2023-02-26T04:27:49;0.40;66.20
22562;DHT22;11447;50.562;8.504;2023-02-26T04:30:16;0.30;67.40
22562;DHT22;11447;50.562;8.504;2023-02-26T04:32:43;0.40;67.60
22562;DHT22;11447;50.562;8.504;2023-02-26T04:35:10;0.50;67.40
22562;DHT22;11447;50.562;8.504;2023-02-26T04:37:36;0.50;66.80
22562;DHT22;11447;50.562;8.504;2023-02-26T04:40:05;0.20;67.10
22562;DHT22;11447;50.562;8.504;2023-02-26T04:42:32;0.40;67.50
22562;DHT22;11447;50.562;8.504;2023-02-26T04:45:01;0.50;67.10
22562;DHT22;11447;50.562;8.504;2023-02-26T04:47:28;0.60;67.80
22562;DHT22;11447;50.562;8.504;2023-02-26T04:49:54;0.00;67.50
22562;DHT22;11447;50.562;8.504;2023-02-26T04:52:21;0.00;67.40
22562;DHT22;11447;50.562;8.504;2023-02-26T04:54:48;0.30;68.00
22562;DHT22;11447;50.562;8.504;2023-02-26T04:57:17;0.50;67.70
22562;DHT22;11447;50.562;8.504;2023-02-26T04:59:43;0.40;67.80
22562;DHT22;11447;50.562;8.504;2023-02-26T05:02:10;0.30;67.80
22562;DHT22;11447;50.562;8.504;2023-02-26T05:04:36;0.40;67.80
22562;DHT22;11447;50.562;8.504;2023-02-26T05:07:03;0.40;67.70
22562;DHT22;11447;50.562;8.504;2023-02-26T05:09:30;0.30;68.20
22562;DHT22;11447;50.562;8.504;2023-02-26T05:11:56;0.50;68.20
22562;DHT22;11447;50.562;8.504;2023-02-26T05:14:23;0.20;68.30
22562;DHT22;11447;50.562;8.504;2023-02-26T05:16:49;0.20;68.20
22562;DHT22;11447;50.562;8.504;2023-02-26T05:19:16;0.30;67.70
22562;DHT22;11447;50.562;8.504;2023-02-26T05:21:45;0.20;68.20
22562;DHT22;11447;50.562;8.504;2023-02-26T05:24:15;0.50;68.00
22562;DHT22;11447;50.562;8.504;2023-02-26T05:26:41;0.30;67.80
22562;DHT22;11447;50.562;8.504;2023-02-26T05:29:08;0.30;67.90
22562;DHT22;11447;50.562;8.504;2023-02-26T05:31:34;0.20;68.10
22562;DHT22;11447;50.562;8.504;2023-02-26T05:34:01;0.30;68.20
22562;DHT22;11447;50.562;8.504;2023-02-26T05:36:28;0.30;68.40
22562;DHT22;11447;50.562;8.504;2023-02-26T05:38:54;0.20;68.40
22562;DHT22;11447;50.562;8.504;2023-02-26T05:41:21;0.30;68.30
22562;DHT22;11447;50.562;8.504;2023-02-26T05:43:48;0.30;68.50
22562;DHT22;11447;50.562;8.504;2023-02-26T05:46:17;0.20;68.90
22562;DHT22;11447;50.562;8.504;2023-02-26T05:48:46;0.40;68.80
22562;DHT22;11447;50.562;8.504;2023-02-26T05:51:14;0.30;68.90
22562;DHT22;11447;50.562;8.504;2023-02-26T05:53:41;0.40;68.70
22562;DHT22;11447;50.562;8.504;2023-02-26T05:56:08;0.30;68.80
22562;DHT22;11447;50.562;8.504;2023-02-26T05:58:35;0.60;68.90
22562;DHT22;11447;50.562;8.504;2023-02-26T06:01:01;0.50;68.90
22562;DHT22;11447;50.562;8.504;2023-02-26T06:03:28;0.40;69.00
22562;DHT22;11447;50.562;8.504;2023-02-26T06:05:55;0.30;69.10
22562;DHT22;11447;50.562;8.504;2023-02-26T06:08:21;0.40;68.80
22562;DHT22;11447;50.562;8.504;2023-02-26T06:10:49;0.30;69.10
22562;DHT22;11447;50.562;8.504;2023-02-26T06:13:16;0.50;69.80
22562;DHT22;11447;50.562;8.504;2023-02-26T06:15:43;0.20;70.10
22562;DHT22;11447;50.562;8.504;2023-02-26T06:18:10;0.20;70.20
22562;DHT22;11447;50.562;8.504;2023-02-26T06:20:39;0.00;71.10
22562;DHT22;11447;50.562;8.504;2023-02-26T06:23:07;0.00;71.20
22562;DHT22;11447;50.562;8.504;2023-02-26T06:25:34;-3276.70;71.90
22562;DHT22;11447;50.562;8.504;2023-02-26T06:28:01;0.00;71.90
22562;DHT22;11447;50.562;8.504;2023-02-26T06:30:30;-3276.70;72.30
22562;DHT22;11447;50.562;8.504;2023-02-26T06:32:57;-3276.60;72.50
22562;DHT22;11447;50.562;8.504;2023-02-26T06:35:23;0.00;71.90
22562;DHT22;11447;50.562;8.504;2023-02-26T06:37:50;0.00;71.70
22562;DHT22;11447;50.562;8.504;2023-02-26T06:40:17;-3276.70;72.70
22562;DHT22;11447;50.562;8.504;2023-02-26T06:42:43;-3276.60;72.70
22562;DHT22;11447;50.562;8.504;2023-02-26T06:45:10;0.00;73.20
22562;DHT22;11447;50.562;8.504;2023-02-26T06:47:39;-3276.70;72.60
22562;DHT22;11447;50.562;8.504;2023-02-26T06:50:06;0.00;72.40
22562;DHT22;11447;50.562;8.504;2023-02-26T06:52:36;0.10;71.70
22562;DHT22;11447;50.562;8.504;2023-02-26T06:55:03;0.30;71.40
22562;DHT22;11447;50.562;8.504;2023-02-26T06:57:29;0.30;71.20
22562;DHT22;11447;50.562;8.504;2023-02-26T06:59:56;0.20;71.30
22562;DHT22;11447;50.562;8.504;2023-02-26T07:02:23;0.10;71.00
22562;DHT22;11447;50.562;8.504;2023-02-26T07:04:50;0.40;71.00
22562;DHT22;11447;50.562;8.504;2023-02-26T07:07:16;0.40;70.70
22562;DHT22;11447;50.562;8.504;2023-02-26T07:09:43;0.10;71.10
22562;DHT22;11447;50.562;8.504;2023-02-26T07:12:13;0.30;70.70
22562;DHT22;11447;50.562;8.504;2023-02-26T07:14:40;0.10;70.70
22562;DHT22;11447;50.562;8.504;2023-02-26T07:17:08;0.40;70.70
22562;DHT22;11447;50.562;8.504;2023-02-26T07:19:35;0.40;70.80
22562;DHT22;11447;50.562;8.504;2023-02-26T07:22:02;0.40;71.00
22562;DHT22;11447;50.562;8.504;2023-02-26T07:24:28;0.30;70.90
22562;DHT22;11447;50.562;8.504;2023-02-26T07:26:55;0.40;70.20
22562;DHT22;11447;50.562;8.504;2023-02-26T07:29:21;0.30;70.40
22562;DHT22;11447;50.562;8.504;2023-02-26T07:31:50;0.40;70.50
22562;DHT22;11447;50.562;8.504;2023-02-26T07:34:19;0.30;70.10
22562;DHT22;11447;50.562;8.504;2023-02-26T07:36:46;0.20;69.80
22562;DHT22;11447;50.562;8.504;2023-02-26T07:39:13;0.20;70.40
22562;DHT22;11447;50.562;8.504;2023-02-26T07:41:39;0.40;69.90
22562;DHT22;11447;50.562;8.504;2023-02-26T07:44:06;0.60;69.80
22562;DHT22;11447;50.562;8.504;2023-02-26T07:46:32;0.50;69.50
22562;DHT22;11447;50.562;8.504;2023-02-26T07:49:01;0.40;69.20
22562;DHT22;11447;50.562;8.504;2023-02-26T07:51:28;0.10;69.80
22562;DHT22;11447;50.562;8.504;2023-02-26T07:53:57;0.30;69.90
22562;DHT22;11447;50.562;8.504;2023-02-26T07:56:26;0.40;69.50
22562;DHT22;11447;50.562;8.504;2023-02-26T07:58:53;0.40;69.20
22562;DHT22;11447;50.562;8.504;2023-02-26T08:01:20;0.30;69.10
22562;DHT22;11447;50.562;8.504;2023-02-26T08:03:47;0.20;69.20
22562;DHT22;11447;50.562;8.504;2023-02-26T08:06:16;0.30;67.90
22562;DHT22;11447;50.562;8.504;2023-02-26T08:08:42;0.30;68.60
22562;DHT22;11447;50.562;8.504;2023-02-26T08:11:09;0.30;68.30
22562;DHT22;11447;50.562;8.504;2023-02-26T08:13:38;0.40;68.70
22562;DHT22;11447;50.562;8.504;2023-02-26T08:16:05;0.50;68.40
22562;DHT22;11447;50.562;8.504;2023-02-26T08:18:36;0.50;68.50
22562;DHT22;11447;50.562;8.504;2023-02-26T08:21:03;0.50;67.30
22562;DHT22;11447;50.562;8.504;2023-02-26T08:23:32;0.90;67.20
22562;DHT22;11447;50.562;8.504;2023-02-26T08:25:59;1.40;66.30
22562;DHT22;11447;50.562;8.504;2023-02-26T08:28:26;1.20;65.90
22562;DHT22;11447;50.562;8.504;2023-02-26T08:30:53;0.70;63.60
22562;DHT22;11447;50.562;8.504;2023-02-26T08:33:20;1.00;65.10
22562;DHT22;11447;50.562;8.504;2023-02-26T08:35:49;1.10;63.80
22562;DHT22;11447;50.562;8.504;2023-02-26T08:38:18;0.90;62.50
22562;DHT22;11447;50.562;8.504;2023-02-26T08:40:47;1.10;63.00
22562;DHT22;11447;50.562;8.504;2023-02-26T08:43:14;0.70;63.40
22562;DHT22;11447;50.562;8.504;2023-02-26T08:45:41;0.90;63.90
22562;DHT22;11447;50.562;8.504;2023-02-26T08:48:08;1.00;63.10
22562;DHT22;11447;50.562;8.504;2023-02-26T08:50:37;0.60;63.20
22562;DHT22;11447;50.562;8.504;2023-02-26T08:53:05;1.00;62.10
22562;DHT22;11447;50.562;8.504;2023-02-26T08:55:32;1.00;63.00
22562;DHT22;11447;50.562;8.504;2023-02-26T08:57:59;1.00;61.00
22562;DHT22;11447;50.562;8.504;2023-02-26T09:00:26;1.20;60.80
22562;DHT22;11447;50.562;8.504;2023-02-26T09:02:52;1.30;60.30
22562;DHT22;11447;50.562;8.504;2023-02-26T09:05:21;1.20;59.30
22562;DHT22;11447;50.562;8.504;2023-02-26T09:07:48;1.20;60.00
22562;DHT22;11447;50.562;8.504;2023-02-26T09:10:15;0.90;60.90
22562;DHT22;11447;50.562;8.504;2023-02-26T09:12:44;1.10;59.80
22562;DHT22;11447;50.562;8.504;2023-02-26T09:15:12;0.80;59.30
22562;DHT22;11447;50.562;8.504;2023-02-26T09:17:40;1.00;60.10
22562;DHT22;11447;50.562;8.504;2023-02-26T09:20:07;1.10;60.90
22562;DHT22;11447;50.562;8.504;2023-02-26T09:22:36;0.80;61.40
22562;DHT22;11447;50.562;8.504;2023-02-26T09:25:03;0.70;60.80
22562;DHT22;11447;50.562;8.504;2023-02-26T09:27:30;0.80;61.00
22562;DHT22;11447;50.562;8.504;2023-02-26T09:29:57;0.80;60.90
22562;DHT22;11447;50.562;8.504;2023-02-26T09:32:24;1.10;60.30
22562;DHT22;11447;50.562;8.504;2023-02-26T09:34:52;1.50;60.40
22562;DHT22;11447;50.562;8.504;2023-02-26T09:37:18;1.60;59.40
22562;DHT22;11447;50.562;8.504;2023-02-26T09:39:50;1.60;59.60
22562;DHT22;11447;50.562;8.504;2023-02-26T09:45:06;1.30;57.90
22562;DHT22;11447;50.562;8.504;2023-02-26T09:47:39;1.20;58.80
22562;DHT22;11447;50.562;8.504;2023-02-26T09:50:19;1.20;59.20
22562;DHT22;11447;50.562;8.504;2023-02-26T09:55:33;1.30;59.40
22562;DHT22;11447;50.562;8.504;2023-02-26T09:58:03;1.60;59.40
22562;DHT22;11447;50.562;8.504;2023-02-26T10:00:35;1.80;58.10
22562;DHT22;11447;50.562;8.504;2023-02-26T10:03:18;2.10;57.10
22562;DHT22;11447;50.562;8.504;2023-02-26T10:08:39;2.30;57.90
22562;DHT22;11447;50.562;8.504;2023-02-26T10:11:16;1.70;56.60
22562;DHT22;11447;50.562;8.504;2023-02-26T10:16:25;1.60;57.90
22562;DHT22;11447;50.562;8.504;2023-02-26T10:18:54;1.40;57.40
22562;DHT22;11447;50.562;8.504;2023-02-26T10:21:26;1.50;58.10
22562;DHT22;11447;50.562;8.504;2023-02-26T10:24:00;1.60;57.80
22562;DHT22;11447;50.562;8.504;2023-02-26T10:26:36;1.70;57.80
22562;DHT22;11447;50.562;8.504;2023-02-26T10:31:37;1.30;57.40
22562;DHT22;11447;50.562;8.504;2023-02-26T10:42:11;1.50;57.20
22562;DHT22;11447;50.562;8.504;2023-02-26T10:44:50;1.70;58.40
22562;DHT22;11447;50.562;8.504;2023-02-26T10:49:56;1.40;57.50
22562;DHT22;11447;50.562;8.504;2023-02-26T10:52:26;1.50;57.70
22562;DHT22;11447;50.562;8.504;2023-02-26T10:57:30;1.60;57.20
22562;DHT22;11447;50.562;8.504;2023-02-26T11:00:00;1.70;57.50
22562;DHT22;11447;50.562;8.504;2023-02-26T11:02:37;1.90;57.60
22562;DHT22;11447;50.562;8.504;2023-02-26T11:07:49;1.90;57.80
22562;DHT22;11447;50.562;8.504;2023-02-26T11:10:21;2.00;57.50
22562;DHT22;11447;50.562;8.504;2023-02-26T11:12:50;2.00;57.80
22562;DHT22;11447;50.562;8.504;2023-02-26T11:15:20;2.10;57.70
22562;DHT22;11447;50.562;8.504;2023-02-26T11:17:48;1.90;57.20
22562;DHT22;11447;50.562;8.504;2023-02-26T11:20:39;1.90;58.30
22562;DHT22;11447;50.562;8.504;2023-02-26T11:23:11;1.50;57.90
22562;DHT22;11447;50.562;8.504;2023-02-26T11:25:38;1.80;57.60
22562;DHT22;11447;50.562;8.504;2023-02-26T11:28:22;2.10;58.50
22562;DHT22;11447;50.562;8.504;2023-02-26T11:30:53;2.10;57.50
22562;DHT22;11447;50.562;8.504;2023-02-26T11:33:21;2.10;58.60
22562;DHT22;11447;50.562;8.504;2023-02-26T11:35:48;2.10;57.10
22562;DHT22;11447;50.562;8.504;2023-02-26T11:38:18;2.30;57.30
22562;DHT22;11447;50.562;8.504;2023-02-26T11:40:47;2.40;56.80
22562;DHT22;11447;50.562;8.504;2023-02-26T11:43:15;2.40;57.60
22562;DHT22;11447;50.562;8.504;2023-02-26T11:45:44;2.80;56.10
22562;DHT22;11447;50.562;8.504;2023-02-26T11:48:14;3.00;55.80
22562;DHT22;11447;50.562;8.504;2023-02-26T11:50:44;2.30;55.70
22562;DHT22;11447;50.562;8.504;2023-02-26T11:53:18;2.60;56.50
22562;DHT22;11447;50.562;8.504;2023-02-26T11:55:45;2.80;55.70
22562;DHT22;11447;50.562;8.504;2023-02-26T11:58:16;2.70;55.50
22562;DHT22;11447;50.562;8.504;2023-02-26T12:00:43;3.00;56.20
22562;DHT22;11447;50.562;8.504;2023-02-26T12:03:20;3.10;56.00
22562;DHT22;11447;50.562;8.504;2023-02-26T12:05:48;3.00;55.40
22562;DHT22;11447;50.562;8.504;2023-02-26T12:08:29;3.00;55.70
22562;DHT22;11447;50.562;8.504;2023-02-26T12:16:13;2.50;55.70
22562;DHT22;11447;50.562;8.504;2023-02-26T12:18:43;2.30;55.90
22562;DHT22;11447;50.562;8.504;2023-02-26T12:28:47;2.70;56.60
22562;DHT22;11447;50.562;8.504;2023-02-26T12:36:37;3.30;56.40
22562;DHT22;11447;50.562;8.504;2023-02-26T12:42:12;3.10;56.60
22562;DHT22;11447;50.562;8.504;2023-02-26T12:50:07;2.60;56.20
22562;DHT22;11447;50.562;8.504;2023-02-26T12:52:40;3.00;55.90
22562;DHT22;11447;50.562;8.504;2023-02-26T13:11:25;2.50;55.20
22562;DHT22;11447;50.562;8.504;2023-02-26T13:19:22;2.80;53.90
22562;DHT22;11447;50.562;8.504;2023-02-26T13:21:56;2.90;54.90
22562;DHT22;11447;50.562;8.504;2023-02-26T13:26:57;3.00;53.30
22562;DHT22;11447;50.562;8.504;2023-02-26T13:29:28;2.90;54.50
22562;DHT22;11447;50.562;8.504;2023-02-26T13:32:04;2.80;53.80
22562;DHT22;11447;50.562;8.504;2023-02-26T13:34:35;2.80;53.50
22562;DHT22;11447;50.562;8.504;2023-02-26T13:37:04;2.70;55.30
22562;DHT22;11447;50.562;8.504;2023-02-26T13:39:35;2.70;54.90
22562;DHT22;11447;50.562;8.504;2023-02-26T13:52:47;2.90;53.70
22562;DHT22;11447;50.562;8.504;2023-02-26T13:55:34;2.60;53.40
22562;DHT22;11447;50.562;8.504;2023-02-26T13:58:14;2.80;54.20
22562;DHT22;11447;50.562;8.504;2023-02-26T14:00:45;2.80;52.10
22562;DHT22;11447;50.562;8.504;2023-02-26T14:08:38;2.80;52.20
22562;DHT22;11447;50.562;8.504;2023-02-26T14:14:04;3.40;52.70
22562;DHT22;11447;50.562;8.504;2023-02-26T14:16:33;3.50;51.70
22562;DHT22;11447;50.562;8.504;2023-02-26T14:19:04;3.90;51.70
22562;DHT22;11447;50.562;8.504;2023-02-26T14:24:14;3.90;51.30
22562;DHT22;11447;50.562;8.504;2023-02-26T14:26:49;3.50;52.50
22562;DHT22;11447;50.562;8.504;2023-02-26T14:29:20;3.50;52.80
22562;DHT22;11447;50.562;8.504;2023-02-26T14:34:29;3.50;52.50
22562;DHT22;11447;50.562;8.504;2023-02-26T14:36:59;3.10;51.80
22562;DHT22;11447;50.562;8.504;2023-02-26T14:39:46;2.90;52.40
22562;DHT22;11447;50.562;8.504;2023-02-26T14:45:25;3.20;52.10
22562;DHT22;11447;50.562;8.504;2023-02-26T14:47:47;3.60;51.30
22562;DHT22;11447;50.562;8.504;2023-02-26T14:50:16;3.60;50.70
22562;DHT22;11447;50.562;8.504;2023-02-26T14:57:49;2.70;52.60
22562;DHT22;11447;50.562;8.504;2023-02-26T15:05:34;3.00;52.50
22562;DHT22;11447;50.562;8.504;2023-02-26T15:21:23;2.70;51.30
22562;DHT22;11447;50.562;8.504;2023-02-26T15:23:55;2.90;51.50
22562;DHT22;11447;50.562;8.504;2023-02-26T15:26:25;2.80;51.10
22562;DHT22;11447;50.562;8.504;2023-02-26T15:28:56;3.40;50.60
22562;DHT22;11447;50.562;8.504;2023-02-26T15:31:28;3.10;49.40
22562;DHT22;11447;50.562;8.504;2023-02-26T15:33:56;3.10;48.80
22562;DHT22;11447;50.562;8.504;2023-02-26T15:36:23;2.80;49.40
22562;DHT22;11447;50.562;8.504;2023-02-26T15:39:00;3.30;49.70
22562;DHT22;11447;50.562;8.504;2023-02-26T15:41:31;3.00;49.20
22562;DHT22;11447;50.562;8.504;2023-02-26T15:44:01;2.90;49.10
22562;DHT22;11447;50.562;8.504;2023-02-26T15:46:30;2.80;49.10
22562;DHT22;11447;50.562;8.504;2023-02-26T15:48:59;2.90;49.80
22562;DHT22;11447;50.562;8.504;2023-02-26T15:51:29;2.70;49.40
22562;DHT22;11447;50.562;8.504;2023-02-26T15:53:58;2.70;50.00
22562;DHT22;11447;50.562;8.504;2023-02-26T15:56:34;2.90;50.20
22562;DHT22;11447;50.562;8.504;2023-02-26T15:59:03;3.10;51.00
22562;DHT22;11447;50.562;8.504;2023-02-26T16:01:32;3.00;50.70
22562;DHT22;11447;50.562;8.504;2023-02-26T16:04:00;2.80;49.10
22562;DHT22;11447;50.562;8.504;2023-02-26T16:08:58;3.00;49.20
22562;DHT22;11447;50.562;8.504;2023-02-26T16:11:26;3.00;49.50
22562;DHT22;11447;50.562;8.504;2023-02-26T16:13:55;2.90;49.90
22562;DHT22;11447;50.562;8.504;2023-02-26T16:16:44;3.00;49.70
22562;DHT22;11447;50.562;8.504;2023-02-26T16:19:10;2.90;49.20
22562;DHT22;11447;50.562;8.504;2023-02-26T16:21:38;2.70;49.70
22562;DHT22;11447;50.562;8.504;2023-02-26T16:24:06;2.60;50.00
22562;DHT22;11447;50.562;8.504;2023-02-26T16:26:36;2.80;50.40
22562;DHT22;11447;50.562;8.504;2023-02-26T16:29:11;3.10;49.60
22562;DHT22;11447;50.562;8.504;2023-02-26T16:31:39;2.90;49.20
22562;DHT22;11447;50.562;8.504;2023-02-26T16:34:21;2.80;50.40
22562;DHT22;11447;50.562;8.504;2023-02-26T16:36:48;3.00;51.10
22562;DHT22;11447;50.562;8.504;2023-02-26T16:39:21;3.10;50.20
22562;DHT22;11447;50.562;8.504;2023-02-26T16:41:59;2.90;49.00
22562;DHT22;11447;50.562;8.504;2023-02-26T16:46:56;2.90;51.20
22562;DHT22;11447;50.562;8.504;2023-02-26T16:49:30;2.90;50.30
22562;DHT22;11447;50.562;8.504;2023-02-26T16:51:57;2.80;51.50
22562;DHT22;11447;50.562;8.504;2023-02-26T16:54:32;2.50;51.20
22562;DHT22;11447;50.562;8.504;2023-02-26T16:57:02;2.70;51.80
22562;DHT22;11447;50.562;8.504;2023-02-26T16:59:30;2.70;52.60
22562;DHT22;11447;50.562;8.504;2023-02-26T17:01:58;2.40;50.80
22562;DHT22;11447;50.562;8.504;2023-02-26T17:04:30;2.30;51.40
22562;DHT22;11447;50.562;8.504;2023-02-26T17:06:57;2.30;51.20
22562;DHT22;11447;50.562;8.504;2023-02-26T17:09:35;2.40;51.40
22562;DHT22;11447;50.562;8.504;2023-02-26T17:12:04;2.30;51.70
22562;DHT22;11447;50.562;8.504;2023-02-26T17:14:36;2.20;51.90
22562;DHT22;11447;50.562;8.504;2023-02-26T17:17:03;2.20;52.00
22562;DHT22;11447;50.562;8.504;2023-02-26T17:19:29;2.00;52.70
22562;DHT22;11447;50.562;8.504;2023-02-26T17:21:56;2.10;53.10
22562;DHT22;11447;50.562;8.504;2023-02-26T17:24:33;2.00;53.30
22562;DHT22;11447;50.562;8.504;2023-02-26T17:27:01;1.90;53.60
22562;DHT22;11447;50.562;8.504;2023-02-26T17:29:38;1.90;53.90
22562;DHT22;11447;50.562;8.504;2023-02-26T17:32:11;2.00;54.00
22562;DHT22;11447;50.562;8.504;2023-02-26T17:34:38;2.00;54.10
22562;DHT22;11447;50.562;8.504;2023-02-26T17:37:04;1.80;54.30
22562;DHT22;11447;50.562;8.504;2023-02-26T17:39:33;2.00;54.30
22562;DHT22;11447;50.562;8.504;2023-02-26T17:42:01;2.00;54.30
22562;DHT22;11447;50.562;8.504;2023-02-26T17:44:28;2.00;54.30
22562;DHT22;11447;50.562;8.504;2023-02-26T17:46:59;1.90;53.60
22562;DHT22;11447;50.562;8.504;2023-02-26T17:49:26;1.80;54.00
22562;DHT22;11447;50.562;8.504;2023-02-26T17:51:55;1.70;54.00
22562;DHT22;11447;50.562;8.504;2023-02-26T17:54:21;1.90;54.20
22562;DHT22;11447;50.562;8.504;2023-02-26T17:56:48;1.80;54.50
22562;DHT22;11447;50.562;8.504;2023-02-26T17:59:17;1.60;54.30
22562;DHT22;11447;50.562;8.504;2023-02-26T18:01:44;1.50;55.00
22562;DHT22;11447;50.562;8.504;2023-02-26T18:04:13;1.60;54.70
22562;DHT22;11447;50.562;8.504;2023-02-26T18:06:42;1.30;55.00
22562;DHT22;11447;50.562;8.504;2023-02-26T18:09:09;1.50;55.00
22562;DHT22;11447;50.562;8.504;2023-02-26T18:11:36;1.40;55.60
22562;DHT22;11447;50.562;8.504;2023-02-26T18:14:06;1.40;55.90
22562;DHT22;11447;50.562;8.504;2023-02-26T18:16:40;1.50;55.90
22562;DHT22;11447;50.562;8.504;2023-02-26T18:19:07;1.40;56.30
22562;DHT22;11447;50.562;8.504;2023-02-26T18:21:33;1.50;56.30
22562;DHT22;11447;50.562;8.504;2023-02-26T18:24:00;1.60;56.30
22562;DHT22;11447;50.562;8.504;2023-02-26T18:26:28;1.60;56.40
22562;DHT22;11447;50.562;8.504;2023-02-26T18:28:56;1.70;56.70
22562;DHT22;11447;50.562;8.504;2023-02-26T18:31:23;1.80;56.50
22562;DHT22;11447;50.562;8.504;2023-02-26T18:33:50;1.90;56.30
22562;DHT22;11447;50.562;8.504;2023-02-26T18:36:22;2.00;56.10
22562;DHT22;11447;50.562;8.504;2023-02-26T18:38:55;1.90;55.70
22562;DHT22;11447;50.562;8.504;2023-02-26T18:41:27;1.60;56.20
22562;DHT22;11447;50.562;8.504;2023-02-26T18:43:54;1.60;56.90
22562;DHT22;11447;50.562;8.504;2023-02-26T18:46:21;1.40;57.20
22562;DHT22;11447;50.562;8.504;2023-02-26T18:48:48;1.30;57.60
22562;DHT22;11447;50.562;8.504;2023-02-26T18:51:16;1.40;57.70
22562;DHT22;11447;50.562;8.504;2023-02-26T18:53:43;1.50;57.20
22562;DHT22;11447;50.562;8.504;2023-02-26T18:56:10;1.80;57.10
22562;DHT22;11447;50.562;8.504;2023-02-26T18:58:37;1.80;57.20
22562;DHT22;11447;50.562;8.504;2023-02-26T19:01:06;1.80;56.90
22562;DHT22;11447;50.562;8.504;2023-02-26T19:03:33;1.90;56.80
22562;DHT22;11447;50.562;8.504;2023-02-26T19:06:01;2.00;56.70
22562;DHT22;11447;50.562;8.504;2023-02-26T19:08:28;2.00;56.90
22562;DHT22;11447;50.562;8.504;2023-02-26T19:10:56;1.80;56.70
22562;DHT22;11447;50.562;8.504;2023-02-26T19:13:23;1.70;56.90
22562;DHT22;11447;50.562;8.504;2023-02-26T19:15:50;1.70;57.10